| time (UTC) | temp C | wind direction | speed KPH | gust KPH | rain 1hr cm | rain 24hr cm | rain mn cm | humidity % | barometer mb |
| 20260906210319 | 32 | 187 | 6.4 | 9.7 | 0.00 | 0.00 | 0.00 | 41 | 1014.4 |
| 20260906205814 | 32 | 188 | 4.8 | 6.4 | 0.00 | 0.00 | 0.00 | 42 | 1014.4 |
| 20260906205310 | 32 | 174 | 3.2 | 6.4 | 0.00 | 0.00 | 0.00 | 42 | 1014.7 |
| 20260906204806 | 32 | 164 | 6.4 | 6.4 | 0.00 | 0.00 | 0.00 | 42 | 1014.5 |
| 20260906204305 | 32 | 190 | 8.0 | 9.7 | 0.00 | 0.00 | 0.00 | 41 | 1014.6 |
| 20260906203804 | 32 | 190 | 9.7 | 11.3 | 0.00 | 0.00 | 0.00 | 41 | 1014.8 |
| 20260906203300 | 32 | 194 | 4.8 | 6.4 | 0.00 | 0.00 | 0.00 | 43 | 1014.8 |
| 20260906202756 | 32 | 177 | 6.4 | 9.7 | 0.00 | 0.00 | 0.00 | 42 | 1014.8 |
| 20260906202256 | 32 | 192 | 6.4 | 9.7 | 0.00 | 0.00 | 0.00 | 43 | 1015.0 |
| 20260906201751 | 32 | 208 | 8.0 | 9.7 | 0.00 | 0.00 | 0.00 | 42 | 1014.9 |
| 20260906201250 | 32 | 199 | 6.4 | 6.4 | 0.00 | 0.00 | 0.00 | 43 | 1015.0 |
| 20260906200746 | 32 | 193 | 4.8 | 4.8 | 0.00 | 0.00 | 0.00 | 44 | 1015.2 |
| 20260906200242 | 32 | 180 | 3.2 | 3.2 | 0.00 | 0.00 | 0.00 | 44 | 1015.3 |
| 20260906195737 | 31 | 175 | 0.0 | 0.0 | 0.00 | 0.00 | 0.00 | 49 | 1015.2 |
| 20260906195233 | 31 | 183 | 3.2 | 3.2 | 0.00 | 0.00 | 0.00 | 47 | 1015.4 |
| 20260906194729 | 31 | 186 | 0.0 | 1.6 | 0.00 | 0.00 | 0.00 | 47 | 1015.5 |
| 20260906194225 | 31 | 226 | 8.0 | 12.9 | 0.00 | 0.00 | 0.00 | 48 | 1015.4 |
| 20260906193720 | 31 | 195 | 3.2 | 4.8 | 0.00 | 0.00 | 0.00 | 48 | 1015.4 |
| 20260906193220 | 30 | 179 | 1.6 | 3.2 | 0.00 | 0.00 | 0.00 | 50 | 1015.4 |
| 20260906192716 | 30 | 197 | 3.2 | 4.8 | 0.00 | 0.00 | 0.00 | 51 | 1015.7 |
| 20260906192210 | 31 | 221 | 4.8 | 6.4 | 0.00 | 0.00 | 0.00 | 49 | 1015.8 |
| 20260906191710 | 30 | 191 | 0.0 | 0.0 | 0.00 | 0.00 | 0.00 | 52 | 1015.7 |
| 20260906191210 | 30 | 177 | 0.0 | 0.0 | 0.00 | 0.00 | 0.00 | 55 | 1016.1 |
| 20260906190705 | 29 | 181 | 0.0 | 0.0 | 0.00 | 0.00 | 0.00 | 54 | 1016.2 |
| 20260906190159 | 30 | 205 | 4.8 | 6.4 | 0.00 | 0.00 | 0.00 | 53 | 1016.2 |
| 20260906185658 | 29 | 265 | 3.2 | 9.7 | 0.00 | 0.00 | 0.00 | 52 | 1016.3 |
| 20260906185157 | 29 | 198 | 3.2 | 3.2 | 0.00 | 0.00 | 0.00 | 53 | 1016.3 |
| 20260906184651 | 29 | 207 | 6.4 | 6.4 | 0.00 | 0.00 | 0.00 | 53 | 1016.5 |
| 20260906184147 | 28 | 182 | 1.6 | 1.6 | 0.00 | 0.00 | 0.00 | 54 | 1016.6 |
| 20260906183643 | 28 | 211 | 4.8 | 4.8 | 0.00 | 0.00 | 0.00 | 56 | 1016.6 |
| 20260906183139 | 28 | 221 | 6.4 | 9.7 | 0.00 | 0.00 | 0.00 | 55 | 1016.8 |
| 20260906182638 | 28 | 184 | 0.0 | 1.6 | 0.00 | 0.00 | 0.00 | 55 | 1016.6 |
| 20260906182135 | 28 | 206 | 3.2 | 4.8 | 0.00 | 0.00 | 0.00 | 55 | 1016.7 |
| 20260906181630 | 27 | 222 | 9.7 | 11.3 | 0.00 | 0.00 | 0.00 | 57 | 1016.8 |
| 20260906181126 | 27 | 197 | 4.8 | 6.4 | 0.00 | 0.00 | 0.00 | 57 | 1017.1 |
| 20260906180621 | 27 | 227 | 6.4 | 9.7 | 0.00 | 0.00 | 0.00 | 57 | 1017.3 |
| 20260906180121 | 27 | 216 | 8.0 | 11.3 | 0.00 | 0.00 | 0.00 | 56 | 1017.2 |
| 20260906175619 | 27 | 189 | 4.8 | 4.8 | 0.00 | 0.00 | 0.00 | 58 | 1017.3 |
| 20260906175114 | 26 | 209 | 8.0 | 9.7 | 0.00 | 0.00 | 0.00 | 58 | 1017.6 |
| 20260906174612 | 26 | 209 | 4.8 | 6.4 | 0.00 | 0.00 | 0.00 | 59 | 1017.5 |
| 20260906174107 | 26 | 174 | 9.7 | 12.9 | 0.00 | 0.00 | 0.00 | 59 | 1017.7 |
| 20260906173602 | 26 | 180 | 6.4 | 9.7 | 0.00 | 0.00 | 0.00 | 62 | 1017.6 |
| 20260906173058 | 27 | 234 | 9.7 | 14.5 | 0.00 | 0.00 | 0.00 | 59 | 1017.7 |
| 20260906172558 | 26 | 199 | 4.8 | 4.8 | 0.00 | 0.00 | 0.00 | 60 | 1017.8 |
| 20260906172054 | 26 | 197 | 9.7 | 12.9 | 0.00 | 0.00 | 0.00 | 60 | 1017.8 |
| 20260906171553 | 26 | 249 | 9.7 | 11.3 | 0.00 | 0.00 | 0.00 | 60 | 1018.1 |
| 20260906171049 | 26 | 194 | 6.4 | 9.7 | 0.00 | 0.00 | 0.00 | 62 | 1018.1 |
| 20260906170544 | 26 | 173 | 3.2 | 4.8 | 0.00 | 0.00 | 0.00 | 63 | 1018.1 |
| 20260906170043 | 26 | 207 | 8.0 | 9.7 | 0.00 | 0.00 | 0.00 | 63 | 1018.2 |
| 20260906165540 | 25 | 184 | 9.7 | 11.3 | 0.00 | 0.00 | 0.00 | 63 | 1018.0 |
| 20260906165035 | 26 | 188 | 6.4 | 9.7 | 0.00 | 0.00 | 0.00 | 63 | 1018.3 |
| 20260906164534 | 25 | 170 | 1.6 | 3.2 | 0.00 | 0.00 | 0.00 | 66 | 1018.2 |
| 20260906164031 | 25 | 159 | 4.8 | 6.4 | 0.00 | 0.00 | 0.00 | 65 | 1018.4 |
| 20260906163526 | 25 | 171 | 0.0 | 0.0 | 0.00 | 0.00 | 0.00 | 67 | 1018.1 |
| 20260906163021 | 25 | 172 | 0.0 | 1.6 | 0.00 | 0.00 | 0.00 | 68 | 1018.4 |
| 20260906162518 | 23 | 168 | 1.6 | 1.6 | 0.00 | 0.00 | 0.00 | 71 | 1018.4 |
| 20260906162013 | 23 | 200 | 3.2 | 3.2 | 0.00 | 0.00 | 0.00 | 70 | 1018.5 |
| 20260906161508 | 23 | 191 | 3.2 | 3.2 | 0.00 | 0.00 | 0.00 | 71 | 1018.4 |
| 20260906161007 | 23 | 203 | 4.8 | 4.8 | 0.00 | 0.00 | 0.00 | 70 | 1018.4 |
| 20260906160507 | 22 | 170 | 0.0 | 0.0 | 0.00 | 0.00 | 0.00 | 74 | 1018.5 |
| 20260906160005 | 23 | 179 | 1.6 | 3.2 | 0.00 | 0.00 | 0.00 | 72 | 1018.5 |
| 20260906155503 | 22 | 175 | 0.0 | 0.0 | 0.00 | 0.00 | 0.00 | 74 | 1018.6 |
| 20260906154959 | 21 | 173 | 0.0 | 0.0 | 0.00 | 0.00 | 0.00 | 77 | 1018.6 |
| 20260906154455 | 21 | 148 | 1.6 | 1.6 | 0.00 | 0.00 | 0.00 | 77 | 1018.5 |
| 20260906153953 | 21 | 167 | 0.0 | 0.0 | 0.00 | 0.00 | 0.00 | 76 | 1018.5 |
| 20260906153452 | 22 | 175 | 0.0 | 0.0 | 0.00 | 0.00 | 0.00 | 75 | 1018.5 |
| 20260906152947 | 21 | 168 | 0.0 | 0.0 | 0.00 | 0.00 | 0.00 | 76 | 1018.5 |
| 20260906152447 | 21 | 175 | 0.0 | 1.6 | 0.00 | 0.00 | 0.00 | 78 | 1018.5 |
| 20260906151947 | 21 | 129 | 0.0 | 1.6 | 0.00 | 0.00 | 0.00 | 79 | 1018.9 |
| 20260906151442 | 20 | 103 | 1.6 | 3.2 | 0.00 | 0.00 | 0.00 | 80 | 1018.7 |
| 20260906150938 | 20 | 138 | 1.6 | 3.2 | 0.00 | 0.00 | 0.00 | 80 | 1019.0 |
| 20260906150433 | 20 | 136 | 3.2 | 3.2 | 0.00 | 0.00 | 0.00 | 81 | 1019.0 |
| 20260906145932 | 20 | 164 | 0.0 | 0.0 | 0.00 | 0.00 | 0.00 | 81 | 1018.7 |
| 20260906145432 | 20 | 165 | 0.0 | 1.6 | 0.00 | 0.00 | 0.00 | 82 | 1018.7 |
| 20260906144927 | 20 | 168 | 1.6 | 1.6 | 0.00 | 0.00 | 0.00 | 82 | 1019.0 |
| 20260906144427 | 20 | 81 | 4.8 | 4.8 | 0.00 | 0.00 | 0.00 | 81 | 1018.9 |
| 20260906143923 | 20 | 142 | 1.6 | 1.6 | 0.00 | 0.00 | 0.00 | 81 | 1018.9 |
| 20260906143418 | 20 | 157 | 0.0 | 0.0 | 0.00 | 0.00 | 0.00 | 83 | 1019.0 |
| 20260906142914 | 19 | 169 | 0.0 | 1.6 | 0.00 | 0.00 | 0.00 | 83 | 1018.7 |
| 20260906142413 | 19 | 172 | 0.0 | 0.0 | 0.00 | 0.00 | 0.00 | 84 | 1018.9 |
| 20260906141908 | 18 | 173 | 0.0 | 0.0 | 0.00 | 0.00 | 0.00 | 84 | 1018.6 |
| 20260906141408 | 18 | 163 | 0.0 | 0.0 | 0.00 | 0.00 | 0.00 | 84 | 1018.5 |
| 20260906140903 | 18 | 167 | 0.0 | 0.0 | 0.00 | 0.00 | 0.00 | 87 | 1018.7 |
| 20260906140357 | 18 | 166 | 0.0 | 0.0 | 0.00 | 0.00 | 0.00 | 87 | 1018.9 |
| 20260906135855 | 18 | 125 | 3.2 | 3.2 | 0.00 | 0.00 | 0.00 | 87 | 1019.2 |
| 20260906135354 | 18 | 163 | 1.6 | 3.2 | 0.00 | 0.00 | 0.00 | 86 | 1019.0 |
| 20260906134850 | 18 | 161 | 1.6 | 1.6 | 0.00 | 0.00 | 0.00 | 86 | 1019.3 |
| 20260906134345 | 18 | 161 | 0.0 | 0.0 | 0.00 | 0.00 | 0.00 | 87 | 1019.0 |
| 20260906133841 | 18 | 145 | 1.6 | 3.2 | 0.00 | 0.00 | 0.00 | 87 | 1019.0 |
| 20260906133336 | 18 | 163 | 0.0 | 0.0 | 0.00 | 0.00 | 0.00 | 87 | 1018.6 |
| 20260906132831 | 18 | 163 | 0.0 | 0.0 | 0.00 | 0.00 | 0.00 | 88 | 1018.7 |
| 20260906132326 | 17 | 163 | 0.0 | 0.0 | 0.00 | 0.00 | 0.00 | 89 | 1018.5 |
| 20260906131822 | 17 | 162 | 0.0 | 0.0 | 0.00 | 0.00 | 0.00 | 89 | 1018.3 |
| 20260906131317 | 17 | 162 | 0.0 | 0.0 | 0.00 | 0.00 | 0.00 | 89 | 1018.5 |
| 20260906130813 | 17 | 162 | 0.0 | 0.0 | 0.00 | 0.00 | 0.00 | 89 | 1018.6 |
| 20260906130313 | 17 | 158 | 0.0 | 0.0 | 0.00 | 0.00 | 0.00 | 89 | 1018.5 |
| 20260906125812 | 17 | 160 | 0.0 | 1.6 | 0.00 | 0.00 | 0.00 | 89 | 1018.4 |
| 20260906125310 | 17 | 158 | 1.6 | 1.6 | 0.00 | 0.00 | 0.00 | 90 | 1018.4 |
| 20260906124810 | 17 | 159 | 0.0 | 1.6 | 0.00 | 0.00 | 0.00 | 90 | 1018.3 |
| 20260906124306 | 17 | 160 | 0.0 | 0.0 | 0.00 | 0.00 | 0.00 | 90 | 1018.0 |
| 20260906123805 | 17 | 178 | 0.0 | 0.0 | 0.00 | 0.00 | 0.00 | 89 | 1018.2 |
| 20260906123300 | 17 | 161 | 0.0 | 0.0 | 0.00 | 0.00 | 0.00 | 89 | 1018.2 |
| 20260906122759 | 17 | 169 | 0.0 | 0.0 | 0.00 | 0.00 | 0.00 | 89 | 1017.8 |
| 20260906122255 | 17 | 164 | 0.0 | 1.6 | 0.00 | 0.00 | 0.00 | 88 | 1018.0 |
| 20260906121752 | 17 | 178 | 0.0 | 0.0 | 0.00 | 0.00 | 0.00 | 88 | 1017.8 |
| 20260906121247 | 17 | 155 | 1.6 | 1.6 | 0.00 | 0.00 | 0.00 | 87 | 1017.7 |
| 20260906120743 | 17 | 164 | 0.0 | 0.0 | 0.00 | 0.00 | 0.00 | 86 | 1017.7 |
| 20260906120240 | 17 | 181 | 0.0 | 0.0 | 0.00 | 0.00 | 0.00 | 86 | 1017.7 |
| 20260906115735 | 17 | 181 | 0.0 | 0.0 | 0.00 | 0.00 | 0.00 | 85 | 1017.6 |
| 20260906115230 | 17 | 181 | 0.0 | 0.0 | 0.00 | 0.00 | 0.00 | 85 | 1017.7 |
| 20260906114729 | 17 | 181 | 0.0 | 0.0 | 0.00 | 0.00 | 0.00 | 85 | 1017.8 |
| 20260906114224 | 17 | 183 | 0.0 | 0.0 | 0.00 | 0.00 | 0.00 | 84 | 1018.0 |
| 20260906113720 | 18 | 184 | 0.0 | 0.0 | 0.00 | 0.00 | 0.00 | 83 | 1017.8 |
| 20260906113219 | 18 | 177 | 0.0 | 0.0 | 0.00 | 0.00 | 0.00 | 82 | 1017.7 |
| 20260906112718 | 18 | 177 | 0.0 | 0.0 | 0.00 | 0.00 | 0.00 | 81 | 1017.7 |
| 20260906112216 | 18 | 177 | 0.0 | 0.0 | 0.00 | 0.00 | 0.00 | 82 | 1017.8 |
| 20260906111715 | 18 | 178 | 0.0 | 0.0 | 0.00 | 0.00 | 0.00 | 81 | 1017.6 |
| 20260906111209 | 18 | 176 | 0.0 | 0.0 | 0.00 | 0.00 | 0.00 | 81 | 1017.5 |
| 20260906110705 | 18 | 176 | 0.0 | 0.0 | 0.00 | 0.00 | 0.00 | 80 | 1017.7 |
| 20260906110200 | 18 | 177 | 0.0 | 0.0 | 0.00 | 0.00 | 0.00 | 79 | 1017.7 |
| 20260906105700 | 18 | 177 | 0.0 | 0.0 | 0.00 | 0.00 | 0.00 | 79 | 1017.5 |
| 20260906105156 | 18 | 174 | 0.0 | 0.0 | 0.00 | 0.00 | 0.00 | 78 | 1017.7 |
| 20260906104655 | 18 | 170 | 0.0 | 0.0 | 0.00 | 0.00 | 0.00 | 78 | 1017.4 |
| 20260906104154 | 18 | 169 | 0.0 | 0.0 | 0.00 | 0.00 | 0.00 | 78 | 1017.7 |
| 20260906103652 | 18 | 134 | 1.6 | 3.2 | 0.00 | 0.00 | 0.00 | 79 | 1017.8 |
| 20260906103148 | 18 | 105 | 3.2 | 3.2 | 0.00 | 0.00 | 0.00 | 78 | 1017.8 |
| 20260906102643 | 18 | 158 | 3.2 | 4.8 | 0.00 | 0.00 | 0.00 | 79 | 1017.6 |
| 20260906102143 | 18 | 187 | 1.6 | 1.6 | 0.00 | 0.00 | 0.00 | 80 | 1017.6 |
| 20260906101643 | 18 | 181 | 0.0 | 0.0 | 0.00 | 0.00 | 0.00 | 80 | 1017.7 |
| 20260906101143 | 18 | 171 | 0.0 | 0.0 | 0.00 | 0.00 | 0.00 | 79 | 1017.3 |
| 20260906100639 | 18 | 169 | 1.6 | 1.6 | 0.00 | 0.00 | 0.00 | 78 | 1017.2 |
| 20260906100133 | 18 | 165 | 0.0 | 1.6 | 0.00 | 0.00 | 0.00 | 78 | 1017.0 |
| 20260906095628 | 18 | 171 | 1.6 | 3.2 | 0.00 | 0.00 | 0.00 | 78 | 1016.8 |
| 20260906095123 | 18 | 170 | 1.6 | 3.2 | 0.00 | 0.00 | 0.00 | 76 | 1016.7 |
| 20260906094622 | 18 | 169 | 3.2 | 3.2 | 0.00 | 0.00 | 0.00 | 76 | 1017.0 |
| 20260906094118 | 18 | 168 | 0.0 | 1.6 | 0.00 | 0.00 | 0.00 | 75 | 1016.8 |
| 20260906093615 | 18 | 164 | 0.0 | 0.0 | 0.00 | 0.00 | 0.00 | 76 | 1016.6 |
| 20260906093114 | 18 | 172 | 0.0 | 0.0 | 0.00 | 0.00 | 0.00 | 77 | 1016.6 |
| 20260906092609 | 18 | 171 | 3.2 | 3.2 | 0.00 | 0.00 | 0.00 | 77 | 1016.8 |
| 20260906092104 | 18 | 168 | 0.0 | 1.6 | 0.00 | 0.00 | 0.00 | 76 | 1016.8 |
| 20260906091600 | 18 | 162 | 0.0 | 0.0 | 0.00 | 0.00 | 0.00 | 77 | 1016.5 |
| 20260906091057 | 18 | 155 | 0.0 | 0.0 | 0.00 | 0.00 | 0.00 | 77 | 1016.7 |
| 20260906090556 | 18 | 169 | 0.0 | 0.0 | 0.00 | 0.00 | 0.00 | 79 | 1016.7 |
| 20260906090057 | 18 | 165 | 0.0 | 1.6 | 0.00 | 0.00 | 0.00 | 81 | 1016.6 |
| 20260906085556 | 18 | 166 | 0.0 | 0.0 | 0.00 | 0.00 | 0.00 | 81 | 1016.7 |
| 20260906085050 | 17 | 162 | 0.0 | 0.0 | 0.00 | 0.00 | 0.00 | 82 | 1016.7 |
| 20260906084545 | 17 | 149 | 0.0 | 0.0 | 0.00 | 0.00 | 0.00 | 83 | 1016.6 |
| 20260906084043 | 17 | 167 | 0.0 | 1.6 | 0.00 | 0.00 | 0.00 | 82 | 1017.2 |
| 20260906083539 | 18 | 161 | 0.0 | 1.6 | 0.00 | 0.00 | 0.00 | 82 | 1017.2 |
| 20260906083039 | 18 | 155 | 1.6 | 3.2 | 0.00 | 0.00 | 0.00 | 82 | 1017.6 |
| 20260906082534 | 18 | 167 | 0.0 | 0.0 | 0.00 | 0.00 | 0.00 | 81 | 1017.5 |
| 20260906082030 | 18 | 140 | 6.4 | 6.4 | 0.00 | 0.00 | 0.00 | 80 | 1017.7 |
| 20260906081526 | 18 | 138 | 3.2 | 4.8 | 0.00 | 0.00 | 0.00 | 78 | 1017.5 |
| 20260906081021 | 19 | 18 | 3.2 | 6.4 | 0.00 | 0.00 | 0.00 | 75 | 1017.5 |
| 20260906080518 | 18 | 154 | 3.2 | 3.2 | 0.00 | 0.00 | 0.00 | 75 | 1017.2 |
| 20260906080014 | 18 | 167 | 0.0 | 0.0 | 0.00 | 0.00 | 0.00 | 76 | 1017.2 |
| 20260906075513 | 18 | 168 | 0.0 | 0.0 | 0.00 | 0.00 | 0.00 | 77 | 1017.3 |
| 20260906075008 | 18 | 167 | 0.0 | 0.0 | 0.00 | 0.00 | 0.00 | 80 | 1017.3 |
| 20260906074503 | 18 | 166 | 0.0 | 0.0 | 0.00 | 0.00 | 0.00 | 80 | 1017.3 |
| 20260906074001 | 18 | 166 | 0.0 | 0.0 | 0.00 | 0.00 | 0.00 | 80 | 1017.2 |
| 20260906073456 | 18 | 175 | 1.6 | 1.6 | 0.00 | 0.00 | 0.00 | 80 | 1017.3 |
| 20260906072953 | 18 | 178 | 0.0 | 1.6 | 0.00 | 0.00 | 0.00 | 80 | 1017.2 |
| 20260906072447 | 18 | 162 | 1.6 | 1.6 | 0.00 | 0.00 | 0.00 | 81 | 1017.1 |
| 20260906071943 | 18 | 165 | 1.6 | 3.2 | 0.00 | 0.00 | 0.00 | 81 | 1017.1 |
| 20260906071439 | 18 | 160 | 0.0 | 1.6 | 0.00 | 0.00 | 0.00 | 81 | 1017.0 |
| 20260906070935 | 18 | 165 | 0.0 | 0.0 | 0.00 | 0.00 | 0.00 | 82 | 1017.0 |
| 20260906070431 | 18 | 169 | 3.2 | 3.2 | 0.00 | 0.00 | 0.00 | 81 | 1017.1 |
| 20260906065926 | 18 | 144 | 1.6 | 1.6 | 0.00 | 0.00 | 0.00 | 81 | 1017.0 |
| 20260906065421 | 18 | 154 | 3.2 | 4.8 | 0.00 | 0.00 | 0.00 | 82 | 1017.0 |
| 20260906064916 | 18 | 115 | 4.8 | 4.8 | 0.00 | 0.00 | 0.00 | 84 | 1017.1 |
| 20260906064413 | 18 | 185 | 4.8 | 6.4 | 0.00 | 0.00 | 0.00 | 84 | 1016.7 |
| 20260906063913 | 18 | 139 | 3.2 | 9.7 | 0.00 | 0.00 | 0.00 | 85 | 1017.0 |
| 20260906063408 | 18 | 172 | 1.6 | 1.6 | 0.00 | 0.00 | 0.00 | 85 | 1017.3 |
| 20260906062902 | 18 | 164 | 8.0 | 12.9 | 0.00 | 0.00 | 0.00 | 85 | 1017.5 |
| 20260906062402 | 18 | 172 | 1.6 | 1.6 | 0.00 | 0.00 | 0.00 | 86 | 1017.5 |
| 20260906061857 | 18 | 153 | 0.0 | 0.0 | 0.00 | 0.00 | 0.00 | 87 | 1017.7 |
| 20260906061354 | 18 | 157 | 3.2 | 6.4 | 0.00 | 0.00 | 0.00 | 88 | 1018.1 |
| 20260906060848 | 18 | 101 | 9.7 | 14.5 | 0.00 | 0.00 | 0.00 | 88 | 1018.2 |
| 20260906060346 | 18 | 169 | 1.6 | 3.2 | 0.00 | 0.00 | 0.00 | 89 | 1018.2 |
| 20260906055842 | 18 | 85 | 6.4 | 14.5 | 0.00 | 1.37 | 1.37 | 88 | 1018.1 |
| 20260906055337 | 18 | 146 | 3.2 | 4.8 | 0.00 | 1.37 | 1.37 | 89 | 1018.0 |
| 20260906054832 | 18 | 158 | 0.0 | 1.6 | 0.00 | 1.37 | 1.37 | 90 | 1018.0 |
| 20260906054327 | 18 | 145 | 1.6 | 1.6 | 0.00 | 1.37 | 1.37 | 91 | 1017.6 |
| 20260906053824 | 18 | 161 | 1.6 | 3.2 | 0.00 | 1.37 | 1.37 | 91 | 1018.0 |
| 20260906053319 | 18 | 139 | 0.0 | 1.6 | 0.00 | 1.37 | 1.37 | 91 | 1017.6 |
| 20260906052814 | 18 | 167 | 1.6 | 1.6 | 0.00 | 1.37 | 1.37 | 91 | 1017.8 |
| 20260906052311 | 18 | 156 | 1.6 | 1.6 | 0.00 | 1.37 | 1.37 | 91 | 1018.0 |
| 20260906051808 | 18 | 183 | 3.2 | 4.8 | 0.00 | 1.37 | 1.37 | 91 | 1018.1 |
| 20260906051306 | 18 | 157 | 1.6 | 1.6 | 0.00 | 1.37 | 1.37 | 92 | 1017.7 |
| 20260906050802 | 18 | 82 | 1.6 | 3.2 | 0.00 | 1.37 | 1.37 | 92 | 1017.6 |
| 20260906050257 | 18 | 46 | 3.2 | 4.8 | 0.00 | 1.37 | 1.37 | 93 | 1018.0 |
| 20260906045756 | 18 | 153 | 0.0 | 0.0 | 0.00 | 1.37 | 1.37 | 93 | 1017.8 |
| 20260906045250 | 18 | 95 | 4.8 | 6.4 | 0.00 | 1.37 | 1.37 | 93 | 1017.7 |
| 20260906044747 | 18 | 166 | 1.6 | 3.2 | 0.00 | 1.37 | 1.37 | 93 | 1018.3 |
| 20260906044242 | 18 | 180 | 1.6 | 1.6 | 0.00 | 1.37 | 1.37 | 93 | 1018.3 |
| 20260906043738 | 18 | 1 | 4.8 | 11.3 | 0.00 | 1.37 | 1.37 | 93 | 1018.1 |
| 20260906043233 | 18 | 94 | 3.2 | 4.8 | 0.00 | 1.37 | 1.37 | 92 | 1017.8 |
| 20260906042733 | 18 | 132 | 6.4 | 9.7 | 0.00 | 1.37 | 1.37 | 91 | 1017.7 |
| 20260906042232 | 18 | 137 | 3.2 | 9.7 | 0.30 | 1.37 | 1.37 | 90 | 1017.6 |
| 20260906041727 | 20 | 102 | 4.8 | 4.8 | 0.30 | 1.37 | 1.37 | 88 | 1017.4 |
| 20260906041223 | 20 | 45 | 16.1 | 20.9 | 0.00 | 1.32 | 1.32 | 84 | 1018.1 |
| 20260906040719 | 20 | 176 | 4.8 | 9.7 | 0.00 | 1.32 | 1.32 | 83 | 1018.0 |
| 20260906040214 | 20 | 166 | 0.0 | 0.0 | 0.00 | 1.32 | 1.32 | 81 | 1017.7 |
| 20260906035709 | 20 | 153 | 1.6 | 3.2 | 0.00 | 1.32 | 1.32 | 81 | 1017.7 |
| 20260906035205 | 20 | 167 | 0.0 | 1.6 | 0.00 | 1.32 | 1.32 | 82 | 1017.7 |
| 20260906034704 | 20 | 26 | 8.0 | 11.3 | 0.00 | 1.32 | 1.32 | 80 | 1017.5 |
| 20260906034159 | 20 | 175 | 9.7 | 11.3 | 0.00 | 1.32 | 1.32 | 79 | 1017.4 |
| 20260906033655 | 21 | 137 | 4.8 | 6.4 | 0.00 | 1.32 | 1.32 | 75 | 1017.4 |
| 20260906033156 | 22 | 67 | 8.0 | 12.9 | 0.00 | 1.32 | 1.32 | 70 | 1016.8 |
| 20260906032652 | 25 | 350 | 9.7 | 11.3 | 0.00 | 1.32 | 1.32 | 58 | 1016.3 |
| 20260906032146 | 25 | 11 | 17.7 | 22.5 | 0.00 | 1.32 | 1.32 | 58 | 1016.5 |
| 20260906031642 | 23 | 63 | 8.0 | 11.3 | 0.00 | 1.32 | 1.32 | 62 | 1016.5 |
| 20260906031137 | 25 | 14 | 11.3 | 14.5 | 0.00 | 1.32 | 1.32 | 64 | 1016.4 |
| 20260906030636 | 25 | 313 | 4.8 | 4.8 | 0.00 | 1.32 | 1.32 | 63 | 1015.9 |
| 20260906030132 | 25 | 166 | 0.0 | 0.0 | 0.00 | 1.32 | 1.32 | 63 | 1015.0 |
| 20260906025631 | 25 | 170 | 0.0 | 0.0 | 0.00 | 1.32 | 1.32 | 62 | 1014.8 |
| 20260906025130 | 25 | 177 | 0.0 | 0.0 | 0.00 | 1.32 | 1.32 | 62 | 1014.4 |
| 20260906024625 | 25 | 165 | 0.0 | 0.0 | 0.00 | 1.32 | 1.32 | 61 | 1014.4 |
| 20260906024119 | 25 | 170 | 0.0 | 1.6 | 0.00 | 1.32 | 1.32 | 62 | 1014.0 |
| 20260906023615 | 25 | 156 | 1.6 | 3.2 | 0.00 | 1.32 | 1.32 | 62 | 1013.8 |
| 20260906023109 | 25 | 156 | 3.2 | 9.7 | 0.00 | 1.32 | 1.32 | 64 | 1013.8 |
| 20260906022605 | 24 | 163 | 0.0 | 1.6 | 0.00 | 1.32 | 1.32 | 67 | 1014.3 |
| 20260906022100 | 24 | 155 | 0.0 | 1.6 | 0.00 | 1.32 | 1.32 | 66 | 1014.1 |
| 20260906021556 | 25 | 168 | 1.6 | 3.2 | 0.00 | 1.32 | 1.32 | 66 | 1014.1 |
| 20260906021055 | 25 | 158 | 0.0 | 1.6 | 0.00 | 1.32 | 1.32 | 66 | 1014.3 |
| 20260906020554 | 25 | 157 | 0.0 | 1.6 | 0.00 | 1.32 | 1.32 | 64 | 1014.1 |
| 20260906020054 | 25 | 152 | 1.6 | 1.6 | 0.00 | 1.32 | 1.32 | 64 | 1014.1 |
| 20260906015554 | 24 | 165 | 1.6 | 4.8 | 0.00 | 1.32 | 1.32 | 65 | 1014.0 |
| 20260906015053 | 24 | 154 | 1.6 | 3.2 | 0.00 | 1.32 | 1.32 | 67 | 1014.1 |
| 20260906014548 | 24 | 170 | 0.0 | 1.6 | 0.00 | 1.32 | 1.32 | 67 | 1013.9 |
| 20260906014044 | 24 | 158 | 0.0 | 0.0 | 0.00 | 1.32 | 1.32 | 67 | 1013.9 |
| 20260906013539 | 24 | 169 | 0.0 | 0.0 | 0.00 | 1.32 | 1.32 | 66 | 1013.8 |
| 20260906013035 | 24 | 151 | 1.6 | 1.6 | 0.00 | 1.32 | 1.32 | 64 | 1013.8 |
| 20260906012530 | 24 | 161 | 1.6 | 3.2 | 0.00 | 1.32 | 1.32 | 65 | 1013.9 |
| 20260906012029 | 24 | 166 | 0.0 | 0.0 | 0.00 | 1.32 | 1.32 | 66 | 1013.8 |
| 20260906011525 | 23 | 167 | 1.6 | 1.6 | 0.00 | 1.32 | 1.32 | 67 | 1014.0 |
| 20260906011025 | 23 | 167 | 0.0 | 0.0 | 0.00 | 1.32 | 1.32 | 67 | 1014.0 |
| 20260906010520 | 23 | 171 | 0.0 | 0.0 | 0.00 | 1.32 | 1.32 | 69 | 1014.3 |
| 20260906010017 | 23 | 166 | 1.6 | 1.6 | 0.00 | 1.32 | 1.32 | 69 | 1014.3 |
| 20260906005516 | 23 | 180 | 0.0 | 0.0 | 0.00 | 1.32 | 1.32 | 70 | 1014.5 |
| 20260906005015 | 23 | 169 | 1.6 | 1.6 | 0.00 | 1.32 | 1.32 | 71 | 1014.7 |
| 20260906004514 | 23 | 146 | 3.2 | 3.2 | 0.00 | 1.32 | 1.32 | 72 | 1014.6 |
| 20260906004010 | 23 | 166 | 0.0 | 0.0 | 0.00 | 1.32 | 1.32 | 72 | 1014.7 |
| 20260906003505 | 23 | 171 | 0.0 | 0.0 | 0.00 | 1.32 | 1.32 | 72 | 1014.7 |
| 20260906003001 | 23 | 162 | 0.0 | 1.6 | 0.00 | 1.32 | 1.32 | 71 | 1014.8 |
| 20260906002501 | 22 | 134 | 1.6 | 1.6 | 0.00 | 1.32 | 1.32 | 74 | 1014.9 |
| 20260906001956 | 22 | 168 | 1.6 | 3.2 | 0.00 | 1.32 | 1.32 | 74 | 1014.8 |
| 20260906001452 | 22 | 155 | 1.6 | 3.2 | 0.00 | 1.32 | 1.32 | 76 | 1014.8 |
| 20260906000946 | 22 | 120 | 6.4 | 12.9 | 0.00 | 1.32 | 1.32 | 73 | 1014.8 |
| 20260906000441 | 22 | 135 | 3.2 | 3.2 | 0.00 | 1.32 | 1.32 | 76 | 1014.8 |
| 20260905235936 | 23 | 179 | 1.6 | 3.2 | 0.00 | 1.32 | 1.32 | 76 | 1014.8 |
| 20260905235436 | 23 | 157 | 3.2 | 4.8 | 0.00 | 1.32 | 1.32 | 75 | 1014.8 |
| 20260905234931 | 24 | 147 | 3.2 | 4.8 | 0.00 | 1.32 | 1.32 | 72 | 1014.5 |
| 20260905234427 | 24 | 158 | 3.2 | 6.4 | 0.00 | 1.32 | 1.32 | 72 | 1014.6 |
| 20260905233926 | 23 | 161 | 1.6 | 1.6 | 0.00 | 1.32 | 1.32 | 73 | 1014.8 |
| 20260905233422 | 20 | 154 | 0.0 | 1.6 | 0.00 | 1.32 | 1.32 | 87 | 1014.5 |
| 20260905232921 | 20 | 158 | 1.6 | 1.6 | 0.00 | 1.32 | 1.32 | 97 | 1014.0 |
| 20260905232417 | 19 | 166 | 1.6 | 3.2 | 0.13 | 1.32 | 1.32 | 97 | 1014.4 |
| 20260905231912 | 19 | 183 | 4.8 | 6.4 | 0.79 | 1.32 | 1.32 | 97 | 1014.5 |
| 20260905231409 | 18 | 138 | 4.8 | 6.4 | 2.95 | 1.30 | 1.30 | 97 | 1013.9 |
| 20260905230905 | 18 | 88 | 8.0 | 11.3 | 4.27 | 1.24 | 1.24 | 96 | 1013.9 |
| 20260905230403 | 21 | 306 | 11.3 | 16.1 | 2.29 | 0.76 | 0.76 | 80 | 1013.9 |
| 20260905225901 | 21 | 157 | 4.8 | 6.4 | 1.19 | 0.53 | 0.53 | 78 | 1013.9 |
| 20260905225356 | 22 | 197 | 3.2 | 4.8 | 1.19 | 0.43 | 0.43 | 72 | 1013.6 |
| 20260905224852 | 23 | 168 | 3.2 | 3.2 | 0.89 | 0.33 | 0.33 | 68 | 1013.4 |
| 20260905224347 | 26 | 156 | 1.6 | 1.6 | 0.30 | 0.23 | 0.23 | 57 | 1013.5 |
| 20260905223842 | 27 | 156 | 3.2 | 4.8 | 0.00 | 0.18 | 0.18 | 54 | 1012.8 |
| 20260905223340 | 27 | 181 | 3.2 | 4.8 | 0.00 | 0.18 | 0.18 | 51 | 1013.1 |
| 20260905222840 | 27 | 155 | 0.0 | 0.0 | 0.00 | 0.18 | 0.18 | 49 | 1013.3 |
| 20260905222338 | 28 | 165 | 6.4 | 14.5 | 0.00 | 0.18 | 0.18 | 45 | 1013.4 |
| 20260905221835 | 28 | 151 | 3.2 | 3.2 | 0.00 | 0.18 | 0.18 | 49 | 1013.5 |
| 20260905221331 | 28 | 203 | 11.3 | 16.1 | 0.18 | 0.18 | 0.18 | 49 | 1013.6 |
| 20260905220827 | 27 | 169 | 6.4 | 9.7 | 0.18 | 0.18 | 0.18 | 53 | 1013.5 |
| 20260905220323 | 27 | 232 | 14.5 | 20.9 | 0.00 | 0.15 | 0.15 | 51 | 1013.5 |
| 20260905215822 | 28 | 189 | 8.0 | 9.7 | 0.00 | 0.15 | 0.15 | 53 | 1013.5 |
| 20260905215318 | 27 | 194 | 3.2 | 3.2 | 0.00 | 0.15 | 0.15 | 64 | 1013.7 |
| 20260905214814 | 27 | 201 | 6.4 | 6.4 | 0.00 | 0.15 | 0.15 | 71 | 1013.5 |
| 20260905214309 | 26 | 193 | 8.0 | 9.7 | 0.00 | 0.15 | 0.15 | 73 | 1013.4 |
| 20260905213804 | 27 | 174 | 0.0 | 0.0 | 0.13 | 0.15 | 0.15 | 77 | 1013.5 |
| 20260905213300 | 27 | 176 | 1.6 | 1.6 | 0.89 | 0.15 | 0.15 | 74 | 1013.7 |
| 20260905212755 | 28 | 182 | 3.2 | 3.2 | 0.79 | 0.13 | 0.13 | 65 | 1013.6 |
| 20260905212254 | 33 | 202 | 11.3 | 14.5 | 0.00 | 0.00 | 0.00 | 39 | 1014.1 |
| 20260905211749 | 33 | 198 | 3.2 | 4.8 | 0.00 | 0.00 | 0.00 | 33 | 1013.7 |
| 20260905211244 | 34 | 166 | 0.0 | 1.6 | 0.00 | 0.00 | 0.00 | 32 | 1013.7 |
| 20260905210741 | 35 | 165 | 3.2 | 4.8 | 0.00 | 0.00 | 0.00 | 31 | 1014.1 |